Time;durP1;ratioP1;P1;durP2;ratioP2;P2;SDS_P1;SDS_P2;PMS_P1;PMS_P2;Temp;Humidity;BMP_temperature;BMP_pressure;BME280_temperature;BME280_humidity;BME280_pressure;Samples;Min_cycle;Max_cycle;Signal;HPM_P1;HPM_P2
2023/11/03 00:00:49;;;;;;;3.00;0.80;;;;;;;10.03;100.00;97573.44;4972512;28;20476;-71
2023/11/03 00:03:15;;;;;;;3.43;0.80;;;;;;;9.73;100.00;97524.31;4965152;28;20246;-70
2023/11/03 00:05:41;;;;;;;4.50;0.90;;;;;;;9.35;100.00;97499.03;4963839;28;20581;-71
2023/11/03 00:08:08;;;;;;;3.43;0.70;;;;;;;9.31;100.00;97501.44;4961934;28;20274;-70
2023/11/03 00:10:37;;;;;;;3.20;0.60;;;;;;;9.75;100.00;97591.75;4964810;28;20862;-71
2023/11/03 00:13:03;;;;;;;3.53;0.80;;;;;;;9.13;100.00;97521.53;4956804;28;20466;-71
2023/11/03 00:15:29;;;;;;;3.90;0.90;;;;;;;9.35;100.00;97598.78;4956952;28;20459;-71
2023/11/03 00:17:55;;;;;;;3.47;0.87;;;;;;;8.96;100.00;97599.34;4962138;28;20450;-71
2023/11/03 00:20:21;;;;;;;3.33;0.60;;;;;;;9.28;100.00;97702.56;4960329;28;20815;-70
2023/11/03 00:22:46;;;;;;;5.50;0.80;;;;;;;8.90;100.00;97703.84;4959528;28;20461;-70
2023/11/03 00:25:14;;;;;;;5.33;0.93;;;;;;;8.61;100.00;97725.69;4959044;28;20622;-70
2023/11/03 00:27:42;;;;;;;4.40;0.90;;;;;;;8.85;100.00;97816.09;4957550;28;20241;-70
2023/11/03 00:30:08;;;;;;;3.80;0.83;;;;;;;7.72;100.00;97745.19;4962681;28;20436;-70
2023/11/03 00:32:35;;;;;;;5.50;1.00;;;;;;;7.50;100.00;97799.44;4962592;28;20442;-70
2023/11/03 00:35:00;;;;;;;8.00;0.80;;;;;;;8.31;100.00;97939.97;4963573;28;20438;-70
2023/11/03 00:37:26;;;;;;;3.20;0.73;;;;;;;7.90;100.00;97915.59;4960723;28;20450;-70
2023/11/03 00:39:51;;;;;;;9.03;1.00;;;;;;;7.90;100.00;97969.75;4959515;28;20219;-70
2023/11/03 00:42:17;;;;;;;4.83;0.70;;;;;;;7.70;100.00;97940.22;4955847;28;20691;-70
2023/11/03 00:44:42;;;;;;;3.17;0.90;;;;;;;8.11;100.00;98053.53;4958932;28;20218;-70
2023/11/03 00:47:08;;;;;;;4.93;0.80;;;;;;;7.91;100.00;98043.44;4957221;28;20198;-70
2023/11/03 00:49:37;;;;;;;3.70;0.80;;;;;;;7.71;100.00;98051.19;4958672;28;20278;-70
2023/11/03 00:52:07;;;;;;;2.90;0.77;;;;;;;6.98;100.00;97992.63;4958638;28;20443;-70
2023/11/03 00:54:33;;;;;;;4.20;0.70;;;;;;;7.55;100.00;98094.72;4954795;28;20506;-69
2023/11/03 00:57:00;;;;;;;2.63;0.70;;;;;;;7.43;100.00;98076.16;4961641;28;20468;-70
2023/11/03 00:59:26;;;;;;;2.77;0.70;;;;;;;7.13;100.00;98060.53;4961803;28;20532;-70
2023/11/03 01:01:52;;;;;;;3.07;0.77;;;;;;;7.68;100.00;98198.44;4959124;28;20954;-70
2023/11/03 01:04:18;;;;;;;5.43;0.77;;;;;;;7.75;100.00;98212.41;4959720;28;20468;-70
2023/11/03 01:06:43;;;;;;;3.17;0.70;;;;;;;7.63;100.00;98196.47;4958821;28;20449;-71
2023/11/03 01:09:09;;;;;;;2.60;0.63;;;;;;;7.38;100.00;98164.91;4971172;28;20496;-70
2023/11/03 01:11:36;;;;;;;3.93;1.00;;;;;;;7.77;100.00;98220.16;4962491;28;20215;-71
2023/11/03 01:14:04;;;;;;;2.83;0.70;;;;;;;7.39;100.00;98189.72;4966144;28;20214;-70
2023/11/03 01:16:31;;;;;;;2.40;0.70;;;;;;;7.78;100.00;98259.13;4963951;28;20446;-71
2023/11/03 01:18:56;;;;;;;2.70;0.60;;;;;;;7.17;100.00;98189.63;4965415;28;20806;-71
2023/11/03 01:21:22;;;;;;;4.03;0.70;;;;;;;7.65;100.00;98238.94;4960063;28;20461;-71
2023/11/03 01:23:48;;;;;;;2.33;0.60;;;;;;;7.14;100.00;98164.25;4963144;28;20333;-71
2023/11/03 01:26:15;;;;;;;2.80;0.77;;;;;;;6.90;100.00;98155.59;4968552;28;20462;-71
2023/11/03 01:28:41;;;;;;;2.17;0.63;;;;;;;7.12;100.00;98170.91;4959288;28;20183;-70
2023/11/03 01:31:08;;;;;;;2.93;0.73;;;;;;;8.03;100.00;98325.44;4960185;28;20458;-71
2023/11/03 01:33:40;;;;;;;3.70;0.60;;;;;;;7.29;100.00;98195.72;4966633;28;20470;-71
2023/11/03 01:36:06;;;;;;;2.40;0.70;;;;;;;7.80;100.00;98350.44;4963868;28;20849;-72
2023/11/03 01:38:32;;;;;;;7.80;1.00;;;;;;;6.82;100.00;98157.84;4961610;28;20532;-71
2023/11/03 01:41:00;;;;;;;3.00;0.70;;;;;;;7.33;100.00;98284.03;4963775;28;20194;-71
2023/11/03 01:43:26;;;;;;;2.87;0.70;;;;;;;7.88;100.00;98358.06;4965447;28;20501;-71
2023/11/03 01:45:51;;;;;;;2.50;0.80;;;;;;;7.31;100.00;98270.09;4959211;28;20839;-71
2023/11/03 01:48:17;;;;;;;3.30;0.87;;;;;;;7.46;100.00;98292.53;4957792;28;20446;-71
2023/11/03 01:50:42;;;;;;;2.70;0.70;;;;;;;6.93;100.00;98228.91;4960512;28;20190;-72
2023/11/03 01:53:09;;;;;;;3.27;0.97;;;;;;;7.90;100.00;98406.66;4959759;28;20203;-71
2023/11/03 01:55:35;;;;;;;5.33;1.03;;;;;;;7.20;100.00;98303.78;4956350;28;20648;-71
2023/11/03 01:58:01;;;;;;;6.03;1.00;;;;;;;7.90;100.00;98407.47;4968333;28;20508;-71
2023/11/03 02:00:27;;;;;;;3.37;0.90;;;;;;;7.35;100.00;98330.72;4963675;28;20219;-71
2023/11/03 02:02:54;;;;;;;9.07;1.10;;;;;;;8.02;100.00;98430.63;4962007;28;20447;-71
2023/11/03 02:05:19;;;;;;;3.67;1.20;;;;;;;7.54;100.00;98366.00;4966003;28;20187;-71
2023/11/03 02:07:45;;;;;;;5.00;1.10;;;;;;;8.22;100.00;98447.00;4964922;28;20464;-71
2023/11/03 02:10:11;;;;;;;3.30;0.90;;;;;;;7.87;100.00;98386.59;4959515;28;20198;-71
2023/11/03 02:12:36;;;;;;;3.70;1.17;;;;;;;8.08;100.00;98411.78;4958097;28;20312;-71
2023/11/03 02:15:01;;;;;;;5.83;1.43;;;;;;;7.43;100.00;98364.19;4963927;28;20190;-71
2023/11/03 02:17:27;;;;;;;5.80;1.37;;;;;;;8.12;100.00;98481.53;4963117;28;20194;-71
2023/11/03 02:19:52;;;;;;;4.57;1.20;;;;;;;7.59;100.00;98365.28;4959813;28;20206;-71
2023/11/03 02:22:18;;;;;;;5.23;1.43;;;;;;;7.26;100.00;98326.81;4957560;28;20193;-71
2023/11/03 02:24:43;;;;;;;3.67;1.20;;;;;;;8.00;100.00;98409.50;4957921;28;20235;-71
2023/11/03 02:27:09;;;;;;;4.20;1.07;;;;;;;7.71;100.00;98387.38;4960191;28;20187;-71
2023/11/03 02:29:35;;;;;;;3.90;1.00;;;;;;;7.82;100.00;98410.53;4961892;28;20710;-71
2023/11/03 02:32:00;;;;;;;6.40;1.60;;;;;;;7.63;100.00;98379.75;4960992;28;20538;-71
2023/11/03 02:34:25;;;;;;;4.50;1.20;;;;;;;8.31;100.00;98485.59;4959892;28;20214;-71
2023/11/03 02:36:52;;;;;;;5.50;1.00;;;;;;;8.22;100.00;98446.19;4960195;28;20242;-71
2023/11/03 02:39:18;;;;;;;5.13;1.03;;;;;;;7.74;100.00;98376.22;4965039;28;20222;-70
2023/11/03 02:41:43;;;;;;;3.47;1.03;;;;;;;7.70;100.00;98402.59;4966821;28;20996;-71
2023/11/03 02:44:09;;;;;;;4.47;1.17;;;;;;;8.02;100.00;98447.44;4960153;28;20213;-71
2023/11/03 02:46:34;;;;;;;3.00;0.90;;;;;;;7.62;100.00;98354.94;4962150;28;20553;-71
2023/11/03 02:48:59;;;;;;;3.33;1.10;;;;;;;7.93;100.00;98388.31;4958844;28;20654;-71
2023/11/03 02:51:25;;;;;;;4.97;1.20;;;;;;;7.79;100.00;98405.69;4955249;28;20190;-71
2023/11/03 02:53:51;;;;;;;3.53;1.10;;;;;;;7.51;100.00;98323.81;4961392;28;20633;-71
2023/11/03 02:56:23;;;;;;;4.27;1.10;;;;;;;8.27;100.00;98468.41;4964097;28;20698;-71
2023/11/03 02:58:49;;;;;;;3.17;1.10;;;;;;;8.38;100.00;98466.72;4965922;28;20277;-71
2023/11/03 03:01:15;;;;;;;7.83;1.33;;;;;;;8.30;100.00;98475.13;4960745;28;20450;-71
2023/11/03 03:03:41;;;;;;;3.47;1.13;;;;;;;8.37;100.00;98463.25;4960418;28;20209;-71
2023/11/03 03:06:07;;;;;;;5.03;0.97;;;;;;;8.48;100.00;98464.28;4962195;28;20438;-71
2023/11/03 03:08:32;;;;;;;6.63;1.43;;;;;;;8.28;100.00;98464.72;4959261;28;20191;-71
2023/11/03 03:11:00;;;;;;;2.30;0.80;;;;;;;8.22;100.00;98467.56;4964565;28;20199;-71
2023/11/03 03:13:26;;;;;;;3.13;0.90;;;;;;;8.20;100.00;98443.75;4958930;28;20242;-71
2023/11/03 03:15:51;;;;;;;3.93;1.13;;;;;;;8.29;100.00;98455.66;4961220;28;20469;-71
2023/11/03 03:18:16;;;;;;;6.23;1.27;;;;;;;7.92;100.00;98388.53;4956389;28;20285;-71
2023/11/03 03:20:42;;;;;;;4.63;1.47;;;;;;;8.05;100.00;98406.91;4962469;28;20198;-71
2023/11/03 03:23:07;;;;;;;3.17;1.10;;;;;;;7.82;100.00;98370.50;4959339;28;20217;-71
2023/11/03 03:25:34;;;;;;;4.23;1.00;;;;;;;7.91;100.00;98393.06;4958164;28;20206;-71
2023/11/03 03:27:59;;;;;;;5.10;1.20;;;;;;;7.86;100.00;98368.97;4965657;28;20201;-71
2023/11/03 03:30:25;;;;;;;6.87;1.03;;;;;;;8.29;100.00;98450.31;4962589;28;20461;-71
2023/11/03 03:32:50;;;;;;;4.30;1.13;;;;;;;8.06;100.00;98410.41;4966717;28;20278;-71
2023/11/03 03:35:15;;;;;;;3.20;1.10;;;;;;;8.25;100.00;98448.38;4963624;28;20289;-71
2023/11/03 03:37:41;;;;;;;6.23;1.40;;;;;;;7.83;100.00;98349.94;4956086;28;20225;-72
2023/11/03 03:40:07;;;;;;;6.20;0.90;;;;;;;8.29;100.00;98460.97;4960150;28;20222;-71
2023/11/03 03:42:32;;;;;;;3.70;1.10;;;;;;;8.32;100.00;98449.00;4957202;28;20262;-71
2023/11/03 03:44:58;;;;;;;6.07;1.10;;;;;;;7.78;100.00;98340.03;4960896;28;20561;-71
2023/11/03 03:47:23;;;;;;;3.60;1.10;;;;;;;7.76;100.00;98368.78;4957813;28;20190;-71
2023/11/03 03:49:48;;;;;;;4.10;1.10;;;;;;;7.95;100.00;98387.25;4961366;28;20605;-71
2023/11/03 03:52:14;;;;;;;6.00;1.10;;;;;;;7.90;100.00;98362.09;4961847;28;20189;-71
2023/11/03 03:54:39;;;;;;;4.37;1.00;;;;;;;7.91;100.00;98366.38;4960620;28;20297;-71
2023/11/03 03:57:05;;;;;;;3.73;1.17;;;;;;;8.37;100.00;98441.09;4963240;28;20194;-71
2023/11/03 03:59:31;;;;;;;5.80;1.13;;;;;;;8.01;100.00;98372.94;4967273;28;20310;-71
2023/11/03 04:01:57;;;;;;;2.90;0.90;;;;;;;7.54;100.00;98309.97;4962902;28;20257;-71
2023/11/03 04:04:22;;;;;;;4.17;1.00;;;;;;;8.09;100.00;98386.69;4963966;28;20465;-71
2023/11/03 04:06:48;;;;;;;4.00;1.10;;;;;;;8.37;100.00;98412.50;4961880;28;20187;-71
2023/11/03 04:09:13;;;;;;;4.03;1.00;;;;;;;8.01;100.00;98386.28;4964360;28;20270;-71
2023/11/03 04:11:39;;;;;;;4.50;1.17;;;;;;;7.76;100.00;98325.31;4962164;28;20264;-71
2023/11/03 04:14:04;;;;;;;4.00;0.90;;;;;;;7.78;100.00;98324.00;4965126;28;20213;-71
2023/11/03 04:16:34;;;;;;;4.93;1.10;;;;;;;7.80;100.00;98337.09;4962899;28;20819;-71
2023/11/03 04:19:00;;;;;;;4.43;1.10;;;;;;;8.34;100.00;98396.97;4963456;28;20225;-71
2023/11/03 04:21:25;;;;;;;8.73;1.20;;;;;;;8.19;100.00;98388.72;4961152;28;20916;-71
2023/11/03 04:23:51;;;;;;;3.30;1.20;;;;;;;8.47;100.00;98409.19;4966456;28;20702;-71
2023/11/03 04:26:16;;;;;;;4.57;1.20;;;;;;;8.40;100.00;98371.19;4968144;28;20206;-71
2023/11/03 04:28:42;;;;;;;7.80;1.50;;;;;;;8.63;100.00;98439.66;4962843;28;20189;-71
2023/11/03 04:31:07;;;;;;;3.73;0.90;;;;;;;8.36;100.00;98368.16;4966877;28;20186;-71
2023/11/03 04:33:32;;;;;;;3.67;1.10;;;;;;;8.75;100.00;98412.81;4957706;28;20628;-71
2023/11/03 04:35:58;;;;;;;3.30;0.90;;;;;;;8.48;100.00;98345.91;4958805;28;20190;-71
2023/11/03 04:38:23;;;;;;;3.73;1.10;;;;;;;8.04;100.00;98273.66;4958314;28;20206;-71
2023/11/03 04:40:49;;;;;;;2.53;0.93;;;;;;;8.82;100.00;98371.50;4963134;28;20195;-71
2023/11/03 04:43:14;;;;;;;4.80;0.90;;;;;;;7.83;100.00;98244.00;4960889;28;20213;-71
2023/11/03 04:45:40;;;;;;;4.43;1.10;;;;;;;7.93;100.00;98224.69;4962761;28;20193;-71
2023/11/03 04:48:05;;;;;;;4.60;1.20;;;;;;;8.49;100.00;98321.63;4966574;28;20565;-71
2023/11/03 04:50:30;;;;;;;6.13;1.20;;;;;;;8.09;100.00;98250.53;4964438;28;20564;-71
2023/11/03 04:52:56;;;;;;;5.60;1.07;;;;;;;8.46;100.00;98307.94;4969074;28;20269;-71
2023/11/03 04:55:22;;;;;;;2.93;1.00;;;;;;;8.58;100.00;98287.25;4967684;28;20210;-71
2023/11/03 04:57:47;;;;;;;4.70;1.20;;;;;;;8.78;100.00;98356.19;4968643;28;20197;-71
2023/11/03 05:00:13;;;;;;;4.03;1.10;;;;;;;8.73;100.00;98324.84;4959928;28;20214;-71
2023/11/03 05:02:39;;;;;;;4.87;1.60;;;;;;;8.73;100.00;98324.84;4963302;28;20194;-71
2023/11/03 05:05:05;;;;;;;4.20;1.27;;;;;;;8.50;100.00;98280.47;4966858;28;20217;-71
2023/11/03 05:07:37;;;;;;;5.67;1.40;;;;;;;8.33;100.00;98277.84;4961568;28;20289;-71
2023/11/03 05:10:05;;;;;;;4.63;1.00;;;;;;;8.87;100.00;98329.84;4966686;28;20434;-71
2023/11/03 05:12:30;;;;;;;4.07;0.93;;;;;;;8.13;100.00;98242.84;4962033;28;20466;-71
2023/11/03 05:14:56;;;;;;;4.40;1.20;;;;;;;8.08;100.00;98219.56;4965954;28;20470;-71
2023/11/03 05:17:21;;;;;;;4.67;1.23;;;;;;;8.35;100.00;98281.06;4962093;28;20199;-71
2023/11/03 05:19:48;;;;;;;3.47;0.90;;;;;;;8.27;100.00;98261.97;4963667;28;20211;-71
2023/11/03 05:22:14;;;;;;;5.30;1.33;;;;;;;8.15;100.00;98252.22;4967683;28;20182;-71
2023/11/03 05:24:39;;;;;;;5.67;1.00;;;;;;;8.64;100.00;98317.53;4961096;28;20461;-71
2023/11/03 05:27:04;;;;;;;4.30;1.20;;;;;;;8.57;100.00;98312.38;4962750;28;20282;-71
2023/11/03 05:29:30;;;;;;;6.27;1.00;;;;;;;8.40;100.00;98274.22;4964819;28;20662;-71
2023/11/03 05:31:55;;;;;;;4.17;1.10;;;;;;;8.50;100.00;98269.78;4962400;28;20203;-71
2023/11/03 05:34:21;;;;;;;13.17;1.70;;;;;;;8.81;100.00;98319.09;4964879;28;20293;-72
2023/11/03 05:36:46;;;;;;;7.50;1.20;;;;;;;8.01;100.00;98178.06;4960951;28;20290;-71
2023/11/03 05:39:12;;;;;;;4.10;1.10;;;;;;;8.77;100.00;98295.78;4957344;28;20221;-71
2023/11/03 05:41:38;;;;;;;5.20;1.10;;;;;;;8.11;100.00;98194.22;4963662;28;20282;-71
2023/11/03 05:44:04;;;;;;;4.80;1.00;;;;;;;8.22;100.00;98217.34;4967838;28;20556;-71
2023/11/03 05:46:31;;;;;;;5.70;1.50;;;;;;;8.69;100.00;98322.94;4958512;28;20434;-71
2023/11/03 05:48:56;;;;;;;6.27;2.13;;;;;;;7.87;100.00;98199.78;4961823;28;20441;-71
2023/11/03 05:51:22;;;;;;;6.60;1.20;;;;;;;7.74;100.00;98176.09;4960790;28;20435;-71
2023/11/03 05:53:48;;;;;;;5.80;1.53;;;;;;;7.85;100.00;98212.56;4957623;28;20657;-71
2023/11/03 05:56:14;;;;;;;4.87;1.37;;;;;;;8.73;100.00;98342.75;4963865;28;20441;-71
2023/11/03 05:58:40;;;;;;;5.87;1.43;;;;;;;8.02;100.00;98270.47;4970794;28;20466;-71
2023/11/03 06:01:07;;;;;;;7.90;1.73;;;;;;;8.04;100.00;98292.34;4966596;28;20500;-71
2023/11/03 06:03:32;;;;;;;5.90;1.90;;;;;;;8.31;100.00;98349.38;4965194;28;20304;-71
2023/11/03 06:05:58;;;;;;;8.73;2.73;;;;;;;7.63;100.00;98251.69;4967209;28;20529;-71
2023/11/03 06:08:23;;;;;;;7.30;2.00;;;;;;;8.17;100.00;98318.72;4966264;28;20550;-71
2023/11/03 06:10:50;;;;;;;6.53;2.03;;;;;;;7.75;100.00;98268.44;4971415;28;20651;-71
2023/11/03 06:13:16;;;;;;;6.03;1.80;;;;;;;7.85;100.00;98292.63;4970212;28;20237;-71
2023/11/03 06:15:42;;;;;;;9.10;1.80;;;;;;;8.00;100.00;98348.09;4968471;28;20757;-71
2023/11/03 06:18:08;;;;;;;5.50;2.00;;;;;;;8.34;100.00;98390.81;4966853;28;20445;-71
2023/11/03 06:20:34;;;;;;;8.20;1.70;;;;;;;8.25;100.00;98374.41;4966490;28;20690;-71
2023/11/03 06:22:59;;;;;;;5.67;2.00;;;;;;;8.62;100.00;98446.06;4966541;28;20449;-71
2023/11/03 06:25:24;;;;;;;6.30;1.60;;;;;;;8.70;100.00;98464.31;4966179;28;20194;-70
2023/11/03 06:27:50;;;;;;;4.53;1.40;;;;;;;7.88;100.00;98358.06;4968837;28;20631;-71
2023/11/03 06:30:15;;;;;;;5.90;1.90;;;;;;;8.01;100.00;98373.72;4967010;28;20194;-71
2023/11/03 06:32:41;;;;;;;7.93;2.00;;;;;;;8.19;100.00;98417.28;4972347;28;20252;-71
2023/11/03 06:35:07;;;;;;;6.93;1.90;;;;;;;8.54;100.00;98449.13;4965786;28;20193;-71
2023/11/03 06:37:32;;;;;;;6.90;2.00;;;;;;;8.22;100.00;98406.94;4965568;28;20702;-71
2023/11/03 06:39:58;;;;;;;4.20;1.20;;;;;;;8.89;100.00;98504.19;4967734;28;20213;-71
2023/11/03 06:42:23;;;;;;;4.50;1.43;;;;;;;8.40;100.00;98440.63;4968953;28;20186;-71
2023/11/03 06:44:49;;;;;;;4.53;1.50;;;;;;;8.84;100.00;98523.63;4966505;28;20203;-70
2023/11/03 06:47:14;;;;;;;5.63;1.60;;;;;;;8.75;100.00;98499.16;4963857;28;20187;-71
2023/11/03 06:49:44;;;;;;;6.67;1.73;;;;;;;8.10;100.00;98412.34;4967405;28;20183;-71
2023/11/03 06:52:10;;;;;;;5.77;1.50;;;;;;;8.23;100.00;98431.78;4961337;28;20546;-72
2023/11/03 06:54:35;;;;;;;11.93;2.93;;;;;;;8.48;100.00;98480.31;4963476;28;20443;-71
2023/11/03 06:57:01;;;;;;;5.80;1.97;;;;;;;8.91;100.00;98529.63;4967205;28;20437;-71
2023/11/03 06:59:26;;;;;;;6.67;2.10;;;;;;;8.13;100.00;98408.41;4968060;28;20349;-71
2023/11/03 07:01:52;;;;;;;7.40;2.37;;;;;;;8.31;100.00;98450.88;4966067;28;20187;-71
2023/11/03 07:04:17;;;;;;;9.53;2.40;;;;;;;8.47;100.00;98480.53;4964819;28;20567;-71
2023/11/03 07:06:42;;;;;;;8.33;2.53;;;;;;;8.85;100.00;98546.59;4971732;28;20182;-71
2023/11/03 07:09:10;;;;;;;8.40;2.47;;;;;;;8.02;100.00;98409.28;4967588;28;20228;-72
2023/11/03 07:11:35;;;;;;;5.77;1.90;;;;;;;8.79;100.00;98542.25;4963314;28;20282;-71
2023/11/03 07:14:01;;;;;;;5.77;2.23;;;;;;;8.07;100.00;98442.22;4962587;28;20536;-71
2023/11/03 07:16:26;;;;;;;7.00;2.13;;;;;;;8.47;100.00;98541.97;4963856;28;20187;-71
2023/11/03 07:18:51;;;;;;;7.43;2.60;;;;;;;8.28;100.00;98526.16;4961898;28;20254;-71
2023/11/03 07:21:17;;;;;;;5.57;2.10;;;;;;;8.29;100.00;98551.00;4961300;28;20226;-71
2023/11/03 07:23:43;;;;;;;6.93;2.07;;;;;;;8.33;100.00;98577.00;4965255;28;20270;-71
2023/11/03 07:26:12;;;;;;;4.70;1.80;;;;;;;8.29;100.00;98565.16;4966695;28;20187;-71
2023/11/03 07:28:38;;;;;;;5.23;2.57;;;;;;;8.35;100.00;98576.72;4964716;28;20622;-71
2023/11/03 07:31:03;;;;;;;7.30;2.30;;;;;;;8.37;100.00;98580.78;4964895;28;20548;-71
2023/11/03 07:33:31;;;;;;;8.33;2.10;;;;;;;8.26;100.00;98581.66;4965596;28;20998;-70
2023/11/03 07:35:56;;;;;;;6.83;1.87;;;;;;;8.38;100.00;98584.25;4964097;28;20196;-71
2023/11/03 07:38:22;;;;;;;9.20;3.40;;;;;;;8.35;100.00;98606.91;4967093;28;20457;-71
2023/11/03 07:40:48;;;;;;;9.47;3.37;;;;;;;7.81;100.00;98502.31;4968252;28;20194;-71
2023/11/03 07:43:14;;;;;;;9.20;3.43;;;;;;;8.27;100.00;98580.59;4968352;28;20210;-71
2023/11/03 07:45:39;;;;;;;8.90;2.93;;;;;;;8.05;100.00;98568.97;4969166;28;20240;-70
2023/11/03 07:48:05;;;;;;;8.30;2.40;;;;;;;8.20;100.00;98600.50;4966809;28;20492;-71
2023/11/03 07:50:31;;;;;;;5.10;2.23;;;;;;;7.14;100.00;98454.81;4963836;28;20194;-71
2023/11/03 07:52:56;;;;;;;5.90;3.10;;;;;;;7.55;100.00;98540.19;4962604;28;20453;-71
2023/11/03 07:55:22;;;;;;;7.20;2.73;;;;;;;7.98;100.00;98621.69;4966892;28;20273;-71
2023/11/03 07:57:48;;;;;;;7.93;2.20;;;;;;;8.10;100.00;98641.97;4962608;28;20281;-71
2023/11/03 08:00:15;;;;;;;5.23;1.80;;;;;;;8.00;100.00;98641.75;4964888;28;20668;-71
2023/11/03 08:02:41;;;;;;;6.23;2.00;;;;;;;7.72;100.00;98628.34;4966933;28;20801;-71
2023/11/03 08:05:07;;;;;;;6.93;2.00;;;;;;;8.43;100.00;98743.88;4959256;28;20438;-71
2023/11/03 08:07:36;;;;;;;7.23;2.13;;;;;;;8.41;100.00;98753.97;4959983;28;20632;-71
2023/11/03 08:10:03;;;;;;;7.90;2.27;;;;;;;7.87;100.00;98698.88;4961105;28;20445;-71
2023/11/03 08:12:30;;;;;;;9.33;2.17;;;;;;;8.48;100.00;98792.09;4967367;28;20526;-71
2023/11/03 08:14:56;;;;;;;10.77;2.27;;;;;;;8.63;100.00;98819.13;4963157;28;20508;-72
2023/11/03 08:17:22;;;;;;;9.30;2.20;;;;;;;8.03;100.00;98708.03;4963472;28;20852;-71
2023/11/03 08:19:47;;;;;;;6.77;1.90;;;;;;;8.25;100.00;98750.97;4964731;28;20210;-71
2023/11/03 08:22:16;;;;;;;8.17;1.60;;;;;;;8.74;100.00;98828.97;4960149;28;20799;-71
2023/11/03 08:24:41;;;;;;;4.73;1.80;;;;;;;8.00;100.00;98694.34;4960753;28;20199;-71
2023/11/03 08:27:07;;;;;;;4.67;2.13;;;;;;;8.15;100.00;98746.19;4963322;28;20488;-71
2023/11/03 08:29:32;;;;;;;6.47;2.10;;;;;;;8.73;100.00;98837.22;4962313;28;20231;-71
2023/11/03 08:31:58;;;;;;;6.87;2.40;;;;;;;8.47;100.00;98783.22;4968345;28;20183;-71
2023/11/03 08:34:24;;;;;;;5.70;1.67;;;;;;;8.49;100.00;98810.53;4965001;28;20207;-71
2023/11/03 08:36:49;;;;;;;8.20;2.47;;;;;;;8.75;100.00;98843.97;4964876;28;20457;-71
2023/11/03 08:39:15;;;;;;;9.20;2.50;;;;;;;8.69;100.00;98841.41;4963359;28;20206;-71
2023/11/03 08:41:41;;;;;;;8.93;2.70;;;;;;;8.40;100.00;98808.47;4961848;28;20644;-71
2023/11/03 08:44:08;;;;;;;5.70;2.57;;;;;;;8.03;100.00;98744.59;4962334;28;20206;-71
2023/11/03 08:46:34;;;;;;;6.37;2.40;;;;;;;8.05;100.00;98762.00;4961828;28;20442;-71
2023/11/03 08:48:59;;;;;;;12.23;3.40;;;;;;;8.01;100.00;98770.72;4960913;28;20434;-71
2023/11/03 08:51:26;;;;;;;9.90;2.57;;;;;;;7.89;100.00;98758.16;4965227;28;20433;-71
2023/11/03 08:53:52;;;;;;;6.83;2.53;;;;;;;7.85;100.00;98751.69;4965064;28;20210;-71
2023/11/03 08:56:20;;;;;;;5.77;2.40;;;;;;;8.70;100.00;98899.16;4964154;28;20445;-71
2023/11/03 08:58:46;;;;;;;9.50;3.10;;;;;;;7.93;100.00;98753.19;4967538;28;20218;-71
2023/11/03 09:01:11;;;;;;;7.30;2.53;;;;;;;8.85;100.00;98894.13;4968697;28;20437;-71
2023/11/03 09:03:37;;;;;;;8.13;2.70;;;;;;;8.82;100.00;98895.44;4963244;28;20533;-72
2023/11/03 09:06:05;;;;;;;7.53;2.50;;;;;;;8.15;100.00;98810.28;4964591;28;20221;-71
2023/11/03 09:08:31;;;;;;;7.83;2.83;;;;;;;8.07;100.00;98805.31;4963193;28;20462;-71
2023/11/03 09:10:56;;;;;;;5.57;2.33;;;;;;;8.66;100.00;98906.84;4965064;28;20430;-71
2023/11/03 09:13:22;;;;;;;8.67;2.60;;;;;;;8.19;100.00;98826.69;4966053;28;20446;-72
2023/11/03 09:15:48;;;;;;;8.93;2.93;;;;;;;8.10;100.00;98820.03;4963762;28;20187;-71
2023/11/03 09:18:15;;;;;;;5.20;2.40;;;;;;;8.27;100.00;98839.66;4965160;28;20621;-72
2023/11/03 09:20:41;;;;;;;5.60;2.20;;;;;;;9.03;100.00;98960.88;4964244;28;20561;-71
2023/11/03 09:23:08;;;;;;;6.37;2.30;;;;;;;8.88;100.00;98952.53;4962452;28;20529;-71
2023/11/03 09:25:34;;;;;;;7.30;2.20;;;;;;;8.41;100.00;98856.31;4965638;28;20451;-72
2023/11/03 09:28:00;;;;;;;12.83;2.90;;;;;;;9.12;100.00;98972.03;4966306;28;20430;-71
2023/11/03 09:30:26;;;;;;;8.10;2.70;;;;;;;9.12;100.00;98974.69;4967462;28;20435;-71
2023/11/03 09:32:51;;;;;;;7.13;3.10;;;;;;;8.90;100.00;98953.06;4968893;28;20434;-71
2023/11/03 09:35:17;;;;;;;7.60;2.50;;;;;;;8.41;100.00;98879.53;4965195;28;20240;-71
2023/11/03 09:37:42;;;;;;;10.77;2.97;;;;;;;8.48;100.00;98870.38;4969309;28;20209;-71
2023/11/03 09:40:10;;;;;;;7.87;2.80;;;;;;;9.33;100.00;99001.88;4966685;28;20672;-71
2023/11/03 09:42:36;;;;;;;11.83;2.80;;;;;;;9.35;100.00;98987.22;4965539;28;20209;-72
2023/11/03 09:45:08;;;;;;;7.23;2.80;;;;;;;8.62;100.00;98849.56;4965287;28;20435;-71
2023/11/03 09:47:35;;;;;;;9.10;2.60;;;;;;;8.69;100.00;98858.25;4965619;28;20187;-71
2023/11/03 09:50:01;;;;;;;8.63;2.80;;;;;;;9.08;100.00;98917.34;4965923;28;20867;-71
2023/11/03 09:52:32;;;;;;;10.57;2.63;;;;;;;8.68;100.00;98871.84;4965564;28;20446;-71
2023/11/03 09:55:00;;;;;;;7.17;2.30;;;;;;;8.76;100.00;98853.59;4964572;28;20215;-71
2023/11/03 09:57:26;;;;;;;9.83;2.97;;;;;;;9.60;100.00;98972.72;4965605;28;20431;-71
2023/11/03 09:59:53;;;;;;;7.37;2.93;;;;;;;9.47;100.00;98977.28;4964537;28;20469;-71
2023/11/03 10:02:19;;;;;;;11.23;2.53;;;;;;;9.01;100.00;98919.34;4967791;28;20262;-71
2023/11/03 10:04:45;;;;;;;6.87;2.43;;;;;;;8.97;100.00;98868.22;4967134;28;20462;-71
2023/11/03 10:07:11;;;;;;;8.10;2.40;;;;;;;8.86;100.00;98876.25;4969800;28;20422;-71
2023/11/03 10:09:38;;;;;;;10.37;2.50;;;;;;;9.61;100.00;98972.50;4966779;28;20627;-71
2023/11/03 10:12:09;;;;;;;8.57;2.70;;;;;;;9.69;100.00;98998.88;4962041;28;20787;-71
2023/11/03 10:14:34;;;;;;;12.00;3.03;;;;;;;9.09;100.00;98910.97;4967433;28;20950;-71
2023/11/03 10:17:00;;;;;;;12.50;3.13;;;;;;;9.39;100.00;98940.19;4964486;28;20523;-71
2023/11/03 10:19:27;;;;;;;7.70;2.93;;;;;;;8.97;100.00;98862.88;4967330;28;20549;-71
2023/11/03 10:21:54;;;;;;;10.43;2.70;;;;;;;9.64;100.00;98972.00;4966647;28;20779;-71
2023/11/03 10:24:21;;;;;;;9.43;2.53;;;;;;;9.26;100.00;98903.84;4969777;28;20970;-71
2023/11/03 10:26:47;;;;;;;9.00;2.40;;;;;;;9.31;100.00;98919.16;4962269;28;20940;-71
2023/11/03 10:29:12;;;;;;;8.03;2.87;;;;;;;9.04;100.00;98858.19;4964558;28;20418;-71
2023/11/03 10:31:39;;;;;;;8.33;2.83;;;;;;;9.73;100.00;98973.25;4964449;28;20647;-71
2023/11/03 10:34:05;;;;;;;9.37;3.33;;;;;;;9.25;100.00;98902.19;4966767;28;20233;-72
2023/11/03 10:36:32;;;;;;;11.13;2.63;;;;;;;8.97;100.00;98856.72;4962854;28;20812;-71
2023/11/03 10:38:57;;;;;;;10.00;3.17;;;;;;;9.21;100.00;98868.94;4962145;28;20373;-72
2023/11/03 10:41:25;;;;;;;8.67;2.70;;;;;;;9.27;100.00;98892.06;4966612;28;20518;-72
2023/11/03 10:43:57;;;;;;;8.83;2.50;;;;;;;10.00;100.00;98980.69;4967593;28;20353;-71
2023/11/03 10:46:45;;;;;;;14.63;2.97;;;;;;;10.32;100.00;98967.63;4970275;28;20900;-71
2023/11/03 10:49:30;;;;;;;16.40;3.43;;;;;;;9.49;100.00;98859.31;4963277;28;20438;-71
2023/11/03 10:52:07;;;;;;;8.90;2.40;;;;;;;10.44;100.00;98974.78;4963886;28;20422;-71
2023/11/03 10:55:13;;;;;;;12.23;3.27;;;;;;;9.67;100.00;98867.13;4977313;28;20461;-71
2023/11/03 10:57:40;;;;;;;18.80;3.20;;;;;;;10.27;100.00;98956.84;4966124;28;20437;-71
2023/11/03 11:00:12;;;;;;;12.60;2.47;;;;;;;10.58;100.00;98986.81;4966485;28;20874;-71
2023/11/03 11:02:49;;;;;;;11.40;3.27;;;;;;;10.23;100.00;98981.63;4963850;28;20441;-71
2023/11/03 11:05:47;;;;;;;15.90;3.20;;;;;;;10.47;100.00;99009.13;4977814;28;20548;-71
2023/11/03 11:08:15;;;;;;;9.13;2.80;;;;;;;9.58;100.00;98879.28;4958328;28;20517;-71
2023/11/03 11:10:41;;;;;;;11.00;3.10;;;;;;;10.35;100.00;98990.44;4962002;28;20418;-72
2023/11/03 11:13:20;;;;;;;15.00;2.77;;;;;;;10.37;100.00;98999.06;4961436;28;20481;-72
2023/11/03 11:15:57;;;;;;;13.57;2.70;;;;;;;10.44;100.00;99009.63;4960501;28;20984;-72
2023/11/03 11:18:30;;;;;;;14.07;2.67;;;;;;;10.46;100.00;99002.97;4964444;28;20517;-71
2023/11/03 11:21:08;;;;;;;11.80;2.77;;;;;;;10.49;100.00;99009.72;4963045;28;20507;-71
2023/11/03 11:23:37;;;;;;;9.20;2.20;;;;;;;10.57;100.00;99004.75;4963353;28;20450;-71
2023/11/03 11:26:03;;;;;;;15.27;2.87;;;;;;;9.74;100.00;98857.06;4961003;28;20526;-72
2023/11/03 11:28:38;;;;;;;11.33;2.97;;;;;;;9.81;100.00;98883.72;4961519;28;20537;-71